Arctic - Eastern Arctic: Past 24 Hour Conditions

 

Hall Beach Airport

11:00 PM EDT 29 April 2016
Disclaimer

This table is a summary of hourly weather conditions for the past 24 hours.
Please note that these observations might not always be representative of weather conditions over their associated marine area.

Date / Time
(EDT)
Wind(knots) Conditions Visibility(km) Pressure(kPa) Air tempC) Relative humidity(%) Dew pointC) Wind Chill
29 April 2016
23:00 NW 14 Clear 16 102.8 -18 84 -20 -29
22:00 NW 13 Sunny 16 102.8 -16 84 -18 -27
21:00 NW 13 Sunny 16 102.8 -15 84 -17 -25
20:00 NW 11 Mainly Sunny 24 102.8 -13 85 -15 -22
19:00 WNW 6 Sunny 24 102.8 -11 83 -14 -17
18:00 NW 14 gust 19 Mainly Sunny 24 102.8 -10 78 -13 -19
17:00 NW 13 Mainly Sunny 24 102.8 -10 79 -13 -18
16:00 NNW 17 Mainly Sunny 24 102.8 -10 80 -13 -20
15:00 NNW 10 Mainly Sunny 24 102.8 -10 78 -13 -17
14:00 NW 11 Mainly Sunny 24 102.8 -11 81 -13 -19
13:00 NNW 13 Mainly Sunny 24 102.8 -12 80 -15 -21
12:00 NW 16 Mainly Sunny 24 102.8 -13 80 -16 -24
11:00 NW 14 Mainly Sunny 24 102.9 -14 79 -17 -24
10:00 NW 13 Sunny 24 102.9 -16 79 -19 -27
9:00 NW 13 Drifting Snow 24 102.9 -18 78 -21 -28
8:00 NW 14 Drifting Snow 24 102.9 -19 78 -22 -30
7:00 NW 15 Sunny 16 103.0 -20 79 -23 -32
6:00 NW 11 gust 17 Sunny 16 103.0 -21 79 -23 -32
5:00 NW 15 Sunny 16 103.0 -21 80 -23 -33
4:00 NW 14 Clear 16 103.0 -21 81 -24 -33
3:00 NW 14 Clear 16 103.0 -21 81 -24 -33
2:00 NW 15 Clear 16 103.0 -21 81 -24 -34
1:00 NW 17 Clear 16 103.0 -20 81 -23 -33
0:00 NW 14 Clear 16 103.0 -20 82 -23 -32
28 April 2016
23:00 NW 16 Clear 16 103.0 -19 83 -22 -32

Zoom-in to make a selection

Map of Arctic - Eastern Arctic marine weather areas Baker Lake Airport Chesterfield Inlet Airport Coral Harbour Airport Gjoa Haven Airport Kugaaruk Airport Rankin Inlet Airport Shepherd Bay Airport Whale Cove Airport Arctic Bay Brevoort Island Qikiqtarjuaq Airport Cape Dorset Airport Cape Dyer Cape Hooper Clyde River Airport Grise Fiord Airport Hall Beach Airport Igloolik Airport Iqaluit Airport Longstaff Bluff Pangnirtung Airport Pond Inlet Airport Naujaat Resolute Airport Resolution Island Rowley Island Airport Taloyoak Airport Wager Bay Akulivik Airport Ivujivik Airport Puvirnituq Airport Kangiqsujuaq Airport Kangirsuk Airport Quaqtaq Airport Tasiujaq Airport Cape Kakkiviak Cape Kiglapait Nain Airport Saglek Cape Mercy Kimmirut Airport Aupaluk Airport Salluit Airport Kangiqsualujjuaq Airport Cape Liverpool Fort Ross
Legend:
buoy Buoy
land station Land Station

Arctic - Eastern Arctic Area

Another Region

What we are doing

Date modified: